OEBA/ABT METAR and TAF weather

Enter ICAO airport designator
Station Type Date Time Source
OEBA METAR 2020/03/29 14:00 UTC NOAA

OEBA 291400Z 24020KT 9999 FEW030 24/13 Q1016 NOSIG


Station Type Date Time Source
OEBA Decoded METAR 2020/03/29 14:00 UTC NOAA

Al Baha, Saudi Arabia (OEBA) 20-18N 041-38E 1662M
Mar 29, 2020 - 10:00 AM EDT / 2020.03.29 1400 UTC
Wind: from the WSW (240 degrees) at 23 MPH (20 KT):0
Visibility: greater than 7 mile(s):0
Sky conditions: mostly clear
Temperature: 75 F (24 C)
Dew Point: 55 F (13 C)
Relative Humidity: 50%
Pressure (altimeter): 30.00 in. Hg (1016 hPa)
ob: OEBA 291400Z 24020KT 9999 FEW030 24/13 Q1016 NOSIG
cycle: 14

Station Type Date Time Source
OEBA TAF 2020/03/29 12:03 UTC NOAA

TAF OEBA 291100Z 2912/3018 24014KT 9999 FEW030 SCT080
TEMPO 2912/2916 FEW025CB
BECMG 2918/2920 VRB03KT

Example: see airport list